Time;durP1;ratioP1;P1;durP2;ratioP2;P2;SDS_P1;SDS_P2;PMS_P1;PMS_P2;Temp;Humidity;BMP_temperature;BMP_pressure;BME280_temperature;BME280_humidity;BME280_pressure;Samples;Min_cycle;Max_cycle;Signal;HPM_P1;HPM_P2
2024/02/22 00:01:10;;;;;;;29.90;14.20;;;;;;;4.15;95.40;100114.80;104194;1305;22602;-55
2024/02/22 00:03:37;;;;;;;25.60;14.40;;;;;;;4.11;95.30;100112.42;104354;1307;22818;-55
2024/02/22 00:06:04;;;;;;;25.00;13.50;;;;;;;4.03;95.20;100105.40;104308;1291;24966;-55
2024/02/22 00:08:29;;;;;;;29.00;14.90;;;;;;;3.99;95.50;100104.37;107366;1310;22454;-56
2024/02/22 00:10:55;;;;;;;26.00;13.90;;;;;;;3.99;96.21;100097.20;107561;1307;22236;-55
2024/02/22 00:13:20;;;;;;;24.10;13.50;;;;;;;3.99;96.45;100093.98;107534;1298;22257;-54
2024/02/22 00:15:46;;;;;;;24.50;14.50;;;;;;;3.99;96.15;100090.90;106263;1310;22641;-56
2024/02/22 00:18:11;;;;;;;30.90;15.00;;;;;;;4.01;95.67;100085.79;104200;1310;25775;-55
2024/02/22 00:20:37;;;;;;;26.50;13.50;;;;;;;3.99;95.56;100080.67;104155;1304;25432;-52
2024/02/22 00:23:05;;;;;;;30.50;15.30;;;;;;;3.96;95.33;100076.58;104030;1310;22601;-54
2024/02/22 00:25:31;;;;;;;28.80;14.50;;;;;;;3.92;95.37;100068.72;107494;1289;22846;-56
2024/02/22 00:27:57;;;;;;;26.40;15.20;;;;;;;3.90;95.47;100065.30;105094;1291;22551;-55
2024/02/22 00:30:24;;;;;;;23.20;13.80;;;;;;;3.90;95.59;100063.09;103940;1288;26542;-56
2024/02/22 00:32:50;;;;;;;19.20;13.10;;;;;;;3.87;95.39;100057.79;104173;1309;22743;-55
2024/02/22 00:35:16;;;;;;;20.70;14.30;;;;;;;3.81;95.11;100054.20;104035;1302;23472;-53
2024/02/22 00:37:42;;;;;;;33.60;15.80;;;;;;;3.72;95.01;100047.36;104102;1291;26490;-55
2024/02/22 00:40:13;;;;;;;30.80;16.90;;;;;;;3.70;95.54;100043.27;104203;1307;22562;-55
2024/02/22 00:42:40;;;;;;;30.70;17.30;;;;;;;3.71;96.06;100037.13;104039;1297;22593;-55
2024/02/22 00:45:06;;;;;;;37.40;19.20;;;;;;;3.72;95.81;100033.38;104059;1289;22557;-56
2024/02/22 00:47:32;;;;;;;30.40;19.10;;;;;;;3.71;95.70;100029.11;104049;1291;22570;-55
2024/02/22 00:49:57;;;;;;;32.90;18.80;;;;;;;3.72;95.72;100026.89;104079;1307;22618;-56
2024/02/22 00:52:23;;;;;;;30.10;18.60;;;;;;;3.72;95.56;100016.67;104051;1307;22937;-56
2024/02/22 00:54:48;;;;;;;32.80;19.30;;;;;;;3.71;95.53;100015.48;104079;1310;22595;-55
2024/02/22 00:57:14;;;;;;;35.00;20.10;;;;;;;3.71;96.44;100009.34;104002;1291;22568;-57
2024/02/22 00:59:39;;;;;;;41.80;21.10;;;;;;;3.72;96.65;100006.11;104139;1307;22708;-54
2024/02/22 01:02:05;;;;;;;42.20;21.70;;;;;;;3.74;96.78;100003.55;104136;1295;26170;-58
2024/02/22 01:04:30;;;;;;;49.80;23.20;;;;;;;3.76;96.94;100002.53;104048;1305;22669;-56
2024/02/22 01:06:58;;;;;;;39.30;20.80;;;;;;;3.76;96.27;99998.11;104045;1291;23101;-55
2024/02/22 01:09:24;;;;;;;37.70;21.50;;;;;;;3.76;95.85;99991.28;104174;1304;23077;-55
2024/02/22 01:11:50;;;;;;;37.20;21.80;;;;;;;3.75;95.73;99986.17;104122;1305;23809;-55
2024/02/22 01:14:16;;;;;;;35.40;20.30;;;;;;;3.73;95.64;99982.24;104114;1295;23991;-55
2024/02/22 01:16:45;;;;;;;31.30;18.70;;;;;;;3.71;95.40;99976.61;104088;1307;22569;-56
2024/02/22 01:19:11;;;;;;;35.20;19.00;;;;;;;3.64;95.41;99975.59;103793;1303;23844;-55
2024/02/22 01:21:37;;;;;;;40.00;20.40;;;;;;;3.61;95.28;99974.25;104041;1295;28062;-56
2024/02/22 01:24:03;;;;;;;33.80;19.80;;;;;;;3.59;95.44;99969.80;104120;1305;22836;-55
2024/02/22 01:26:29;;;;;;;35.40;20.00;;;;;;;3.57;95.71;99963.16;104042;1303;22746;-55
2024/02/22 01:28:54;;;;;;;35.90;19.40;;;;;;;3.58;95.51;99963.33;103732;1292;25050;-55
2024/02/22 01:31:20;;;;;;;42.10;20.70;;;;;;;3.57;95.78;99959.75;103919;1303;22599;-53
2024/02/22 01:33:46;;;;;;;40.20;21.20;;;;;;;3.60;97.08;99956.52;103954;1303;25464;-55
2024/02/22 01:36:12;;;;;;;40.90;22.30;;;;;;;3.65;97.23;99949.34;103993;1294;22930;-56
2024/02/22 01:38:38;;;;;;;40.00;22.30;;;;;;;3.69;96.74;99944.73;104037;1303;22565;-55
2024/02/22 01:41:05;;;;;;;33.40;20.20;;;;;;;3.71;96.09;99946.11;107501;1303;22892;-56
2024/02/22 01:43:32;;;;;;;39.90;21.50;;;;;;;3.73;96.37;99941.16;107339;1304;22367;-56
2024/02/22 01:45:58;;;;;;;35.30;20.80;;;;;;;3.80;96.35;99942.71;107589;1303;22406;-57
2024/02/22 01:48:23;;;;;;;34.80;19.10;;;;;;;3.85;96.48;99938.45;107535;1290;23682;-54
2024/02/22 01:50:53;;;;;;;41.60;19.80;;;;;;;3.91;97.17;99932.31;104980;1303;22603;-55
2024/02/22 01:53:20;;;;;;;37.60;20.50;;;;;;;4.02;97.31;99932.14;104060;1303;22639;-55
2024/02/22 01:55:47;;;;;;;44.70;20.60;;;;;;;4.12;97.15;99924.30;104029;1303;22681;-56
2024/02/22 01:58:13;;;;;;;39.30;20.20;;;;;;;4.19;97.42;99918.28;104035;1291;22965;-56
2024/02/22 02:00:41;;;;;;;36.60;18.90;;;;;;;4.27;97.65;99914.34;104194;1295;22562;-56
2024/02/22 02:03:07;;;;;;;36.30;19.90;;;;;;;4.38;97.96;99911.77;106712;1304;22577;-54
2024/02/22 02:05:32;;;;;;;33.70;18.20;;;;;;;4.47;97.27;99902.87;104254;1295;26093;-56
2024/02/22 02:07:59;;;;;;;34.60;18.40;;;;;;;4.55;97.36;99898.23;104093;1291;22585;-56
2024/02/22 02:10:24;;;;;;;;;;;;;;;4.61;97.15;99896.00;107529;1309;22535;-56
2024/02/22 02:12:50;;;;;;;36.10;19.40;;;;;;;4.69;97.15;99889.48;107497;1303;22475;-56
2024/02/22 02:15:15;;;;;;;30.50;17.30;;;;;;;4.74;97.04;99883.30;107441;1304;22264;-56
2024/02/22 02:17:43;;;;;;;34.80;18.60;;;;;;;4.77;96.74;99882.77;107470;1303;22779;-57
2024/02/22 02:20:10;;;;;;;33.00;18.30;;;;;;;4.78;96.54;99879.52;107567;1287;22626;-57
2024/02/22 02:23:10;;;;;;;38.20;19.10;;;;;;;4.79;96.37;99868.77;105557;1303;23153;-56
2024/02/22 02:25:35;;;;;;;35.90;18.90;;;;;;;4.79;96.41;99860.23;104234;1308;22596;-55
2024/02/22 02:28:01;;;;;;;34.40;18.70;;;;;;;4.78;96.29;99856.48;104228;1298;22710;-55
2024/02/22 02:30:26;;;;;;;33.30;17.10;;;;;;;4.77;96.37;99854.09;104038;1288;22599;-62
2024/02/22 02:32:51;;;;;;;30.40;17.90;;;;;;;4.78;96.40;99852.03;104020;1308;22712;-54
2024/02/22 02:35:17;;;;;;;38.20;17.60;;;;;;;4.78;96.66;99848.10;104076;1295;22568;-54
2024/02/22 02:37:42;;;;;;;33.00;16.90;;;;;;;4.81;96.70;99847.23;104094;1296;22644;-55
2024/02/22 02:40:08;;;;;;;30.80;15.70;;;;;;;4.82;96.64;99841.77;104177;1307;22950;-57
2024/02/22 02:42:34;;;;;;;28.00;15.70;;;;;;;4.85;96.68;99838.34;104172;1306;22570;-56
2024/02/22 02:44:59;;;;;;;26.00;15.60;;;;;;;4.89;96.63;99833.20;104160;1307;24061;-55
2024/02/22 02:47:25;;;;;;;25.40;15.10;;;;;;;4.94;96.67;99829.59;104151;1298;23736;-56
2024/02/22 02:49:50;;;;;;;27.90;14.70;;;;;;;4.99;96.65;99823.91;103996;1290;25511;-57
2024/02/22 02:52:16;;;;;;;30.40;16.00;;;;;;;5.03;96.55;99815.02;103983;1303;22889;-55
2024/02/22 02:54:41;;;;;;;41.00;16.20;;;;;;;5.04;96.35;99808.86;103970;1303;25457;-53
2024/02/22 02:57:07;;;;;;;30.80;15.90;;;;;;;5.01;96.23;99808.02;104046;1304;22614;-54
2024/02/22 02:59:32;;;;;;;30.60;15.40;;;;;;;4.99;96.31;99805.64;104095;1291;22570;-56
2024/02/22 03:01:57;;;;;;;30.30;15.00;;;;;;;4.99;96.30;99796.59;104163;1304;24297;-55
2024/02/22 03:04:23;;;;;;;38.20;17.20;;;;;;;5.01;96.34;99791.95;104152;1305;24282;-55
2024/02/22 03:06:48;;;;;;;27.90;15.30;;;;;;;5.02;96.31;99790.77;104123;1307;22566;-55
2024/02/22 03:09:14;;;;;;;26.90;15.70;;;;;;;5.04;96.39;99794.85;104097;1288;24292;-53
2024/02/22 03:11:40;;;;;;;28.40;15.50;;;;;;;5.05;96.33;99791.09;103967;1297;24247;-56
2024/02/22 03:14:06;;;;;;;31.50;15.70;;;;;;;5.07;96.37;99785.61;107439;1306;22452;-53
2024/02/22 03:16:32;;;;;;;32.50;16.00;;;;;;;5.10;96.44;99789.52;105021;1293;22574;-57
2024/02/22 03:18:58;;;;;;;25.00;14.00;;;;;;;5.17;96.25;99785.70;104040;1303;23935;-56
2024/02/22 03:21:24;;;;;;;28.30;14.70;;;;;;;5.23;96.26;99782.39;104175;1302;22863;-56
2024/02/22 03:23:49;;;;;;;27.80;13.90;;;;;;;5.26;96.11;99775.36;103888;1310;22559;-56
2024/02/22 03:26:16;;;;;;;33.20;15.30;;;;;;;5.28;96.04;99777.21;104164;1304;25290;-55
2024/02/22 03:28:42;;;;;;;28.50;15.00;;;;;;;5.30;96.01;99771.73;104363;1305;22594;-56
2024/02/22 03:31:08;;;;;;;33.00;14.70;;;;;;;5.29;95.96;99767.81;104065;1288;25074;-55
2024/02/22 03:33:34;;;;;;;25.10;14.10;;;;;;;5.28;95.87;99765.25;104052;1303;24247;-55
2024/02/22 03:36:04;;;;;;;33.50;14.90;;;;;;;5.29;96.17;99763.20;103979;1296;22570;-55
2024/02/22 03:38:30;;;;;;;30.00;15.40;;;;;;;5.29;96.11;99760.80;103983;1303;22560;-56
2024/02/22 03:40:56;;;;;;;29.70;15.10;;;;;;;5.26;95.96;99758.78;103979;1291;23402;-56
2024/02/22 03:43:21;;;;;;;25.00;14.60;;;;;;;5.23;96.09;99752.14;104026;1310;22002;-56
2024/02/22 03:45:47;;;;;;;29.00;16.00;;;;;;;5.22;96.12;99748.21;104065;1295;27743;-55
2024/02/22 03:48:12;;;;;;;30.70;16.30;;;;;;;5.21;96.13;99743.45;104143;1301;25519;-55
2024/02/22 03:50:38;;;;;;;35.50;16.80;;;;;;;5.19;96.14;99739.39;104056;1291;24417;-55
2024/02/22 03:53:04;;;;;;;28.40;17.30;;;;;;;5.15;96.20;99738.91;103944;1290;22605;-55
2024/02/22 03:55:30;;;;;;;39.60;18.10;;;;;;;5.13;96.16;99734.48;103999;1304;22582;-55
2024/02/22 03:57:56;;;;;;;33.10;17.50;;;;;;;5.09;96.24;99731.44;104087;1303;22847;-55
2024/02/22 04:00:22;;;;;;;35.60;17.20;;;;;;;5.07;96.31;99728.21;104100;1287;23555;-55
2024/02/22 04:02:48;;;;;;;26.50;15.90;;;;;;;5.07;96.24;99726.16;104184;1302;24204;-55
2024/02/22 04:05:15;;;;;;;31.60;17.50;;;;;;;5.06;96.33;99727.02;104178;1303;22568;-56
2024/02/22 04:07:42;;;;;;;28.30;16.70;;;;;;;5.07;96.35;99728.73;104161;1295;23680;-56
2024/02/22 04:10:09;;;;;;;31.20;16.30;;;;;;;5.06;96.43;99723.09;104109;1288;22614;-56
2024/02/22 04:12:35;;;;;;;31.50;16.30;;;;;;;5.05;96.47;99719.17;105194;1287;26132;-56
2024/02/22 04:15:01;;;;;;;28.30;16.60;;;;;;;5.05;96.44;99718.15;104035;1303;25477;-55
2024/02/22 04:17:26;;;;;;;29.30;15.80;;;;;;;5.05;96.45;99713.54;104030;1303;24328;-55
2024/02/22 04:19:53;;;;;;;27.80;16.00;;;;;;;5.05;96.43;99710.98;104151;1303;22584;-55
2024/02/22 04:22:19;;;;;;;30.30;16.30;;;;;;;5.05;96.47;99704.31;104967;1293;25892;-56
2024/02/22 04:24:45;;;;;;;25.50;15.60;;;;;;;5.06;96.51;99695.25;104183;1305;25512;-55
2024/02/22 04:27:10;;;;;;;26.90;16.10;;;;;;;5.06;96.65;99694.91;103952;1305;24465;-55
2024/02/22 04:29:36;;;;;;;34.80;17.50;;;;;;;5.06;96.72;99692.19;104253;1295;22654;-56
2024/02/22 04:32:02;;;;;;;36.70;16.90;;;;;;;5.06;96.76;99685.35;104104;1291;22626;-56
2024/02/22 04:34:27;;;;;;;29.40;17.60;;;;;;;5.06;96.78;99685.02;104083;1304;25451;-56
2024/02/22 04:36:53;;;;;;;31.50;16.60;;;;;;;5.07;96.67;99679.88;104155;1303;22598;-55
2024/02/22 04:39:18;;;;;;;28.70;17.80;;;;;;;5.08;96.79;99678.15;103951;1309;23490;-55
2024/02/22 04:41:44;;;;;;;30.50;17.10;;;;;;;5.11;96.64;99673.18;104142;1292;25272;-54
2024/02/22 04:44:10;;;;;;;31.30;17.60;;;;;;;5.13;96.69;99669.23;104320;1295;22826;-56
2024/02/22 04:46:36;;;;;;;28.70;16.40;;;;;;;5.14;96.71;99663.75;104099;1304;22567;-55
2024/02/22 04:49:04;;;;;;;38.90;17.60;;;;;;;5.15;96.58;99655.72;104051;1310;22584;-55
2024/02/22 04:51:33;;;;;;;30.20;16.30;;;;;;;5.15;96.68;99651.11;104249;1288;22576;-56
2024/02/22 04:54:01;;;;;;;30.00;17.00;;;;;;;5.15;96.58;99645.12;105548;1305;22731;-56
2024/02/22 04:56:28;;;;;;;26.80;15.50;;;;;;;5.17;96.62;99639.98;104117;1300;22559;-57
2024/02/22 04:58:57;;;;;;;26.40;15.40;;;;;;;5.18;96.62;99638.60;104158;1297;22646;-56
2024/02/22 05:01:24;;;;;;;27.90;15.00;;;;;;;5.21;96.52;99632.91;106229;1288;22985;-52
2024/02/22 05:03:50;;;;;;;29.50;15.80;;;;;;;5.24;96.49;99630.48;104259;1301;22598;-56
2024/02/22 05:06:15;;;;;;;26.30;14.10;;;;;;;5.26;96.47;99620.55;104326;1305;23521;-55
2024/02/22 05:08:41;;;;;;;26.20;15.20;;;;;;;5.28;96.39;99620.19;104259;1295;22735;-56
2024/02/22 05:11:09;;;;;;;28.30;15.60;;;;;;;5.30;96.34;99620.16;104170;1296;22569;-56
2024/02/22 05:13:35;;;;;;;31.60;15.30;;;;;;;5.33;96.28;99611.25;104028;1297;24264;-56
2024/02/22 05:16:00;;;;;;;25.80;15.20;;;;;;;5.36;96.31;99601.15;104170;1303;23992;-56
2024/02/22 05:18:26;;;;;;;32.80;15.80;;;;;;;5.36;96.23;99592.08;104139;1304;22586;-56
2024/02/22 05:20:51;;;;;;;33.20;16.40;;;;;;;5.37;96.19;99596.34;104191;1306;24327;-53
2024/02/22 05:23:17;;;;;;;27.00;15.10;;;;;;;5.38;96.17;99595.31;104166;1291;25348;-56
2024/02/22 05:25:43;;;;;;;24.80;14.10;;;;;;;5.40;96.18;99593.41;104215;1304;22577;-55
2024/02/22 05:28:08;;;;;;;29.20;14.40;;;;;;;5.41;96.04;99590.31;104171;1306;25348;-55
2024/02/22 05:30:34;;;;;;;22.50;14.90;;;;;;;5.42;96.20;99581.77;104006;1304;22575;-56
2024/02/22 05:33:01;;;;;;;29.00;14.70;;;;;;;5.43;96.16;99576.61;104413;1291;22556;-54
2024/02/22 05:35:26;;;;;;;32.70;14.90;;;;;;;5.44;96.10;99578.31;104165;1309;22548;-57
2024/02/22 05:37:52;;;;;;;20.90;13.20;;;;;;;5.45;96.12;99581.89;104284;1299;22733;-58
2024/02/22 05:40:18;;;;;;;22.00;13.20;;;;;;;5.46;96.03;99578.98;104389;1304;22720;-55
2024/02/22 05:42:44;;;;;;;26.50;14.40;;;;;;;5.47;96.14;99580.00;104254;1300;22921;-56
2024/02/22 05:45:09;;;;;;;23.80;13.40;;;;;;;5.48;95.97;99580.83;104108;1298;22520;-56
2024/02/22 05:47:35;;;;;;;24.10;12.80;;;;;;;5.49;95.98;99570.23;104198;1304;22572;-57
2024/02/22 05:50:01;;;;;;;19.80;12.70;;;;;;;5.51;96.09;99563.36;104142;1304;25292;-57
2024/02/22 05:52:27;;;;;;;16.70;12.20;;;;;;;5.54;95.94;99555.30;104124;1289;22862;-55
2024/02/22 05:54:53;;;;;;;22.90;11.30;;;;;;;5.57;95.89;99552.01;104865;1298;22993;-56
2024/02/22 05:57:19;;;;;;;21.70;12.20;;;;;;;5.63;95.78;99550.56;105625;1303;22562;-55
2024/02/22 05:59:45;;;;;;;15.60;11.00;;;;;;;5.68;95.49;99543.15;105903;1295;22590;-55
2024/02/22 06:02:11;;;;;;;18.10;10.90;;;;;;;5.74;95.60;99543.04;105872;1301;22775;-55
2024/02/22 06:04:37;;;;;;;16.60;11.30;;;;;;;5.77;95.80;99540.59;106038;1302;22761;-56
2024/02/22 06:07:04;;;;;;;17.80;10.30;;;;;;;5.80;95.03;99527.90;104608;1305;23956;-59
2024/02/22 06:09:30;;;;;;;21.50;11.10;;;;;;;5.84;94.86;99529.39;103958;1304;23192;-58
2024/02/22 06:11:55;;;;;;;19.80;10.40;;;;;;;5.89;94.37;99528.31;103997;1304;22738;-59
2024/02/22 06:14:21;;;;;;;14.30;9.70;;;;;;;5.94;94.50;99528.77;103976;1293;22581;-58
2024/02/22 06:16:47;;;;;;;23.40;10.60;;;;;;;5.98;94.38;99526.30;103987;1293;22575;-59
2024/02/22 06:19:12;;;;;;;18.90;10.10;;;;;;;6.02;94.18;99526.25;104085;1310;25321;-59
2024/02/22 06:21:38;;;;;;;17.20;10.00;;;;;;;6.06;93.57;99520.03;104370;1310;25905;-58
2024/02/22 06:24:03;;;;;;;13.10;9.20;;;;;;;6.09;93.67;99520.50;104547;1291;24275;-59
2024/02/22 06:26:33;;;;;;;18.60;9.30;;;;;;;6.13;93.52;99515.99;104220;1289;22586;-59
2024/02/22 06:28:58;;;;;;;16.90;8.90;;;;;;;6.16;92.93;99515.94;107168;1305;22566;-58
2024/02/22 06:31:24;;;;;;;18.00;9.70;;;;;;;6.21;93.20;99509.37;105146;1302;22677;-56
2024/02/22 06:33:52;;;;;;;18.60;9.20;;;;;;;6.25;92.01;99507.91;107436;1294;22264;-57
2024/02/22 06:36:18;;;;;;;15.30;8.70;;;;;;;6.32;93.35;99507.10;107656;1303;22717;-58
2024/02/22 06:38:45;;;;;;;21.00;9.40;;;;;;;6.37;93.30;99503.42;107576;1303;22440;-59
2024/02/22 06:41:11;;;;;;;;;;;;;;;6.41;92.91;99501.48;107588;1303;22799;-57
2024/02/22 06:43:37;;;;;;;16.10;9.00;;;;;;;6.44;93.07;99496.97;107668;1289;22343;-59
2024/02/22 06:46:03;;;;;;;12.70;8.40;;;;;;;6.46;91.91;99494.38;106168;1310;22606;-59
2024/02/22 06:48:29;;;;;;;17.30;9.20;;;;;;;6.48;92.82;99488.00;107714;1304;22272;-59
2024/02/22 06:50:56;;;;;;;20.20;9.80;;;;;;;6.50;93.61;99486.42;107728;1310;22343;-60
2024/02/22 06:53:22;;;;;;;15.10;8.20;;;;;;;6.51;92.54;99483.32;107776;1288;22428;-59
2024/02/22 06:55:47;;;;;;;19.20;9.10;;;;;;;6.54;92.28;99483.78;107629;1292;24359;-58
2024/02/22 06:58:13;;;;;;;13.80;8.90;;;;;;;6.58;92.91;99480.46;107645;1310;22247;-59
2024/02/22 07:00:38;;;;;;;20.00;8.70;;;;;;;6.60;92.47;99476.48;107612;1304;22427;-59
2024/02/22 07:03:04;;;;;;;12.00;7.10;;;;;;;6.65;92.64;99475.71;107590;1310;22455;-59
2024/02/22 07:05:30;;;;;;;16.60;8.10;;;;;;;6.71;91.64;99470.81;107640;1302;22258;-60
2024/02/22 07:07:55;;;;;;;15.60;8.10;;;;;;;6.77;90.22;99466.23;107539;1310;22223;-59
2024/02/22 07:10:21;;;;;;;13.70;7.90;;;;;;;6.82;90.68;99461.15;107720;1310;22376;-60
2024/02/22 07:12:47;;;;;;;17.30;7.80;;;;;;;6.87;90.82;99456.08;107691;1310;22412;-58
2024/02/22 07:15:13;;;;;;;14.30;7.80;;;;;;;6.94;91.57;99453.73;107627;1291;22283;-60
2024/02/22 07:17:39;;;;;;;9.40;6.00;;;;;;;7.00;90.62;99450.52;107583;1310;22196;-59
2024/02/22 07:20:05;;;;;;;10.60;5.90;;;;;;;7.08;89.79;99446.06;107602;1304;22246;-58
2024/02/22 07:22:32;;;;;;;13.00;6.40;;;;;;;7.17;90.35;99443.31;107620;1304;22361;-58
2024/02/22 07:24:58;;;;;;;10.40;6.20;;;;;;;7.23;90.66;99436.17;107555;1298;22251;-59
2024/02/22 07:27:25;;;;;;;12.40;6.70;;;;;;;7.29;89.12;99432.41;106807;1310;24300;-59
2024/02/22 07:29:51;;;;;;;13.10;6.10;;;;;;;7.35;88.45;99432.11;106067;1310;22592;-58
2024/02/22 07:32:16;;;;;;;8.60;4.70;;;;;;;7.40;89.41;99427.02;106131;1308;22551;-59
2024/02/22 07:34:42;;;;;;;8.60;5.30;;;;;;;7.44;88.20;99427.10;105989;1293;22838;-59
2024/02/22 07:37:11;;;;;;;8.90;5.20;;;;;;;7.48;89.32;99421.52;106087;1311;24001;-59
2024/02/22 07:39:37;;;;;;;7.40;4.90;;;;;;;7.53;89.64;99420.89;105646;1310;22527;-58
2024/02/22 07:42:04;;;;;;;8.00;5.00;;;;;;;7.58;89.68;99418.89;105866;1310;22596;-58
2024/02/22 07:44:30;;;;;;;13.30;4.90;;;;;;;7.61;90.24;99419.67;105782;1288;22666;-58
2024/02/22 07:46:55;;;;;;;9.40;4.90;;;;;;;7.66;87.44;99418.89;105767;1310;23390;-59
2024/02/22 07:49:21;;;;;;;11.90;4.70;;;;;;;7.73;86.72;99411.69;105820;1310;22654;-58
2024/02/22 07:51:48;;;;;;;7.30;4.70;;;;;;;7.81;87.31;99406.17;105953;1310;22693;-59
2024/02/22 07:54:13;;;;;;;16.20;4.40;;;;;;;7.86;86.27;99406.55;107493;1310;22246;-59
2024/02/22 07:56:40;;;;;;;8.30;4.20;;;;;;;7.93;86.37;99399.86;106181;1294;22550;-58
2024/02/22 07:59:07;;;;;;;9.60;4.20;;;;;;;8.01;86.91;99397.77;107324;1310;22607;-59
2024/02/22 08:01:33;;;;;;;11.60;4.40;;;;;;;8.08;85.16;99399.30;105549;1310;22519;-59
2024/02/22 08:03:58;;;;;;;5.90;3.80;;;;;;;8.14;84.32;99390.91;105799;1304;22566;-59
2024/02/22 08:06:24;;;;;;;5.50;3.70;;;;;;;8.20;83.96;99386.80;105960;1301;22602;-59
2024/02/22 08:08:50;;;;;;;10.40;4.10;;;;;;;8.25;83.34;99384.44;105917;1287;24318;-59
2024/02/22 08:11:17;;;;;;;5.90;3.40;;;;;;;8.30;85.84;99386.89;105982;1310;22667;-60
2024/02/22 08:13:44;;;;;;;7.60;3.30;;;;;;;8.33;84.45;99383.90;105675;1310;22576;-58
2024/02/22 08:16:10;;;;;;;6.00;3.70;;;;;;;8.33;85.55;99377.19;107588;1292;22254;-59
2024/02/22 08:18:38;;;;;;;5.90;3.30;;;;;;;8.32;84.06;99379.29;107576;1306;22254;-60
2024/02/22 08:21:06;;;;;;;5.60;3.50;;;;;;;8.32;84.07;99372.93;107581;1303;22152;-62
2024/02/22 08:23:32;;;;;;;5.70;3.70;;;;;;;8.30;82.42;99372.10;107562;1309;22452;-60
2024/02/22 08:25:58;;;;;;;6.70;4.10;;;;;;;8.31;83.25;99367.29;105837;1295;23440;-59
2024/02/22 08:28:25;;;;;;;5.20;2.90;;;;;;;8.33;84.35;99365.70;105624;1304;25970;-59
2024/02/22 08:30:51;;;;;;;6.70;3.40;;;;;;;8.31;84.44;99365.92;105820;1311;22862;-58
2024/02/22 08:33:17;;;;;;;4.30;2.90;;;;;;;8.32;85.23;99359.54;105730;1310;22527;-59
2024/02/22 08:35:43;;;;;;;8.00;3.70;;;;;;;8.32;84.81;99357.83;105440;1289;70465;-60
2024/02/22 08:38:12;;;;;;;6.10;3.70;;;;;;;8.31;84.49;99350.46;105561;1303;22914;-57
2024/02/22 08:40:38;;;;;;;5.00;3.20;;;;;;;8.31;84.20;99342.05;105322;1310;22795;-59
2024/02/22 08:43:04;;;;;;;6.90;3.50;;;;;;;8.33;84.46;99336.52;107249;1310;22588;-59
2024/02/22 08:45:31;;;;;;;7.00;3.50;;;;;;;8.34;83.41;99341.30;105485;1310;22637;-58
2024/02/22 08:47:57;;;;;;;6.10;3.40;;;;;;;8.34;83.04;99334.08;105697;1308;22654;-60
2024/02/22 08:50:22;;;;;;;7.40;3.20;;;;;;;8.33;83.66;99329.45;105708;1310;22907;-59
2024/02/22 08:52:48;;;;;;;7.20;3.10;;;;;;;8.35;83.20;99327.38;105455;1307;24334;-58
2024/02/22 08:55:14;;;;;;;5.60;3.40;;;;;;;8.34;84.53;99325.65;105611;1308;22642;-58
2024/02/22 08:57:43;;;;;;;5.10;3.10;;;;;;;8.35;85.08;99324.95;105684;1288;24019;-59
2024/02/22 09:00:10;;;;;;;8.00;2.70;;;;;;;8.37;85.44;99320.44;105333;1302;22587;-59
2024/02/22 09:02:37;;;;;;;9.70;3.70;;;;;;;8.35;84.50;99315.02;107341;1299;173771;-60
2024/02/22 09:05:03;;;;;;;6.50;2.90;;;;;;;8.37;85.74;99309.63;105828;1310;22591;-59
2024/02/22 09:07:30;;;;;;;4.80;3.00;;;;;;;8.35;84.89;99305.73;105540;1303;24202;-60
2024/02/22 09:09:56;;;;;;;5.30;3.00;;;;;;;8.34;85.69;99300.09;105367;1310;22572;-59
2024/02/22 09:12:22;;;;;;;5.70;3.00;;;;;;;8.26;85.31;99300.81;105361;1308;22552;-60
2024/02/22 09:14:48;;;;;;;3.40;2.60;;;;;;;8.22;85.51;99294.05;105488;1311;22611;-59
2024/02/22 09:17:14;;;;;;;6.50;3.40;;;;;;;8.19;84.87;99295.70;105088;1292;23503;-59
2024/02/22 09:19:39;;;;;;;4.20;2.80;;;;;;;8.19;86.05;99290.19;94464;1301;10002165;-59
2024/02/22 09:22:05;;;;;;;7.30;2.70;;;;;;;8.21;88.21;99287.21;107524;1310;22239;-59
2024/02/22 09:24:31;;;;;;;6.50;3.30;;;;;;;8.22;87.97;99283.75;107740;1310;22243;-60
2024/02/22 09:26:56;;;;;;;5.40;2.80;;;;;;;8.21;88.45;99281.21;105903;1291;22575;-57
2024/02/22 09:29:26;;;;;;;7.40;3.20;;;;;;;8.24;87.83;99276.65;105196;1310;25560;-60
2024/02/22 09:31:55;;;;;;;7.00;3.00;;;;;;;8.26;86.60;99276.45;107653;1310;22254;-60
2024/02/22 09:34:23;;;;;;;5.90;3.10;;;;;;;8.26;86.59;99271.45;106146;1310;22585;-59
2024/02/22 09:36:48;;;;;;;5.50;3.00;;;;;;;8.29;86.45;99266.92;107677;1289;22246;-61
2024/02/22 09:39:15;;;;;;;4.20;2.60;;;;;;;8.31;85.73;99264.80;107642;1310;22415;-57
2024/02/22 09:41:42;;;;;;;5.00;2.80;;;;;;;8.28;85.16;99260.94;107669;1310;22868;-60
2024/02/22 09:44:10;;;;;;;;;;;;;;;8.28;85.41;99256.97;107493;1310;22434;-60
2024/02/22 09:46:36;;;;;;;4.70;2.80;;;;;;;8.29;86.18;99253.70;107646;1310;23097;-59
2024/02/22 09:49:02;;;;;;;5.50;3.10;;;;;;;8.32;86.35;99250.52;106826;1291;25753;-60
2024/02/22 09:51:36;;;;;;;5.80;3.10;;;;;;;8.35;85.89;99250.63;104799;1310;22559;-59
2024/02/22 09:54:02;;;;;;;4.80;2.80;;;;;;;8.35;85.78;99247.70;105118;1298;26198;-59
2024/02/22 09:56:28;;;;;;;5.50;2.90;;;;;;;8.32;85.44;99250.35;105883;1310;22538;-58
2024/02/22 09:58:56;;;;;;;6.10;2.80;;;;;;;8.28;85.79;99248.23;104986;1295;24336;-58
2024/02/22 10:01:23;;;;;;;4.80;2.90;;;;;;;8.24;85.79;99244.22;105373;1304;25294;-59
2024/02/22 10:03:48;;;;;;;5.90;2.70;;;;;;;8.20;86.18;99241.92;105192;1310;23179;-58
2024/02/22 10:06:22;;;;;;;3.40;2.60;;;;;;;8.18;86.33;99241.98;105216;1305;22516;-60
2024/02/22 10:08:48;;;;;;;6.60;2.90;;;;;;;8.15;86.64;99240.88;105725;1292;24110;-59
2024/02/22 10:11:17;;;;;;;4.10;2.80;;;;;;;8.13;87.16;99239.73;104933;1298;22550;-59
2024/02/22 10:13:43;;;;;;;10.60;3.30;;;;;;;8.11;87.60;99235.15;105181;1310;22569;-59
2024/02/22 10:16:14;;;;;;;4.90;2.80;;;;;;;8.09;87.83;99234.34;105261;1310;22584;-60
2024/02/22 10:18:41;;;;;;;7.00;3.00;;;;;;;8.10;88.08;99232.09;107533;1292;22251;-60
2024/02/22 10:21:17;;;;;;;6.70;3.80;;;;;;;8.08;87.90;99229.74;106823;1310;25885;-59
2024/02/22 10:23:46;;;;;;;6.40;3.40;;;;;;;7.96;88.63;99221.84;105360;1310;22683;-58
2024/02/22 10:26:13;;;;;;;5.70;3.30;;;;;;;7.90;89.60;99217.53;107620;1310;22248;-60
2024/02/22 10:28:41;;;;;;;7.90;3.50;;;;;;;7.84;90.68;99212.23;107211;1294;284236;-60
2024/02/22 10:31:07;;;;;;;5.60;2.90;;;;;;;7.78;91.88;99212.24;107571;1308;22260;-60
2024/02/22 10:33:34;;;;;;;3.10;2.80;;;;;;;7.72;92.21;99210.34;107657;1310;22236;-59
2024/02/22 10:36:00;;;;;;;4.50;3.20;;;;;;;7.64;93.71;99206.27;107262;1311;23909;-59
2024/02/22 10:38:32;;;;;;;7.10;3.60;;;;;;;7.62;92.33;99204.44;105052;1301;22875;-59
2024/02/22 10:41:00;;;;;;;5.80;3.10;;;;;;;7.61;93.11;99196.39;105244;1306;23799;-58
2024/02/22 10:43:26;;;;;;;8.10;5.30;;;;;;;7.62;92.41;99187.62;107719;1307;22235;-59
2024/02/22 10:46:01;;;;;;;6.40;3.30;;;;;;;7.65;92.94;99183.27;107688;1305;22266;-60
2024/02/22 10:48:32;;;;;;;5.00;3.00;;;;;;;7.66;94.49;99179.64;107668;1292;22396;-60
2024/02/22 10:51:01;;;;;;;5.00;3.30;;;;;;;7.64;95.03;99173.69;107688;1310;22263;-60
2024/02/22 10:53:27;;;;;;;4.90;3.20;;;;;;;7.66;95.26;99171.92;106911;1310;22749;-59
2024/02/22 10:55:55;;;;;;;5.60;3.60;;;;;;;7.71;93.83;99165.79;107632;1310;22260;-59
2024/02/22 10:58:25;;;;;;;3.50;2.80;;;;;;;7.73;95.01;99162.64;107597;1289;22263;-60
2024/02/22 11:00:52;;;;;;;7.80;3.20;;;;;;;7.74;95.47;99158.33;107656;1310;22235;-60
2024/02/22 11:03:21;;;;;;;;;;;;;;;7.73;94.50;99153.04;105630;1308;22530;-59
2024/02/22 11:05:47;;;;;;;5.60;2.40;;;;;;;7.72;94.03;99149.97;105201;1308;23875;-59
2024/02/22 11:08:23;;;;;;;4.70;3.70;;;;;;;7.71;95.04;99145.72;105289;1310;22588;-59
2024/02/22 11:11:06;;;;;;;5.30;3.40;;;;;;;7.67;94.97;99141.17;105769;1292;22593;-58
2024/02/22 11:13:33;;;;;;;5.70;3.30;;;;;;;7.69;93.95;99133.40;107581;1308;22241;-60
2024/02/22 11:15:59;;;;;;;4.80;3.00;;;;;;;7.70;94.72;99131.83;107650;1305;22263;-60
2024/02/22 11:18:25;;;;;;;4.10;3.50;;;;;;;7.70;95.05;99129.27;107672;1310;22240;-60
2024/02/22 11:20:51;;;;;;;5.00;3.40;;;;;;;7.69;95.42;99126.89;107666;1302;22262;-60